Coronel FAP Alfredo Mendivil Duarte Airport
SPHO : now visible

Airfield :











YOU CAN JOIN US ON...

 
LOGIN :

Register | Disclaimer

   EN    FR    IT 

 









Legend :    VFR   Marginal VFR   IFR   Intensive IFR   Very Intensive IFR
Visi :
Ceiling :
>= 8 km
>= 3000ft
5 to 8 km
1000 to 3000 ft
1500m to 5 km
500 to 1000 ft
800 to 1500m
200 to 500 ft
< 800m
< 200 ft
Symbols :   Thunderstorms  Fog  Heavy snow  Heavy precipitations  Wind > 20 kt






- Airport Elevation : 8917 ft
- IATA code : AYP


SPHO - Coronel FAP Alfredo Mendivil Duarte

CURRENT METAR :
  • 071200Z 00000KT 9999 FEW015 09/M02 Q1029 RMK TN6.5 TX25.9 PP006

TAF SPHO
Valid from the 07 at 12:00 until the 08 at 12:00 UTC


071300Z 0712/0812 00000KT 9999 FEW015 TX23/0719Z TN10/0811Z
TEMPO 0717/0719 02010KT
SPIM FIR / South America



MET'MAP, your aeronautical weather chart ! - Copyright ORBIFLY December 2007 - Disclaimer

ORBIFLY MET'MAP TEAM :

Programming & Development : Alexandra Zaïnal
Concept & original design : Baudouin d'Aumeries
Assistance for programming : Marc-Olivier Méhu
Technical & hardware support : Manuel Goepfert

Contact : metmap@orbifly.com




SOURCES & CREDITS :

   NOAA       Earth
Advisory